Time;durP1;ratioP1;P1;durP2;ratioP2;P2;SDS_P1;SDS_P2;PMS_P1;PMS_P2;Temp;Humidity;BMP_temperature;BMP_pressure;BME280_temperature;BME280_humidity;BME280_pressure;Samples;Min_cycle;Max_cycle;Signal;HPM_P1;HPM_P2
2023/12/28 00:01:52;;;;;;;7.73;5.70;;;;;;;6.95;100.00;147794.53;5092072;28;20245;-63
2023/12/28 00:04:21;;;;;;;6.87;5.90;;;;;;;6.92;100.00;147785.72;5092132;28;20206;-63
2023/12/28 00:06:48;;;;;;;7.23;6.20;;;;;;;6.87;100.00;147774.38;5092023;28;20184;-62
2023/12/28 00:09:15;;;;;;;7.73;6.40;;;;;;;6.65;100.00;147720.19;5091892;28;20180;-62
2023/12/28 00:11:42;;;;;;;7.03;6.03;;;;;;;6.72;100.00;147737.81;5091808;28;20207;-64
2023/12/28 00:14:09;;;;;;;6.17;5.67;;;;;;;6.54;100.00;147692.44;5091986;28;20191;-63
2023/12/28 00:16:37;;;;;;;8.17;6.20;;;;;;;6.58;100.00;147702.53;5092224;28;20184;-62
2023/12/28 00:19:04;;;;;;;8.70;5.97;;;;;;;6.39;100.00;147655.94;5091699;28;20188;-63
2023/12/28 00:21:32;;;;;;;8.30;5.53;;;;;;;6.74;100.00;147741.63;5091843;28;20187;-63
2023/12/28 00:24:00;;;;;;;9.83;5.93;;;;;;;6.67;100.00;147725.22;5091840;28;20188;-63
2023/12/28 00:26:27;;;;;;;7.73;5.60;;;;;;;6.56;100.00;147697.50;5091766;28;20192;-63
2023/12/28 00:28:54;;;;;;;6.07;5.53;;;;;;;6.81;100.00;147760.50;5092084;28;20554;-63
2023/12/28 00:31:21;;;;;;;6.10;5.70;;;;;;;6.63;100.00;147713.88;5091846;28;20180;-62
2023/12/28 00:33:49;;;;;;;6.53;5.93;;;;;;;6.49;100.00;147679.88;5091940;28;20180;-62
2023/12/28 00:36:17;;;;;;;5.80;5.47;;;;;;;6.78;100.00;147751.69;5092024;28;20176;-62
2023/12/28 00:38:45;;;;;;;6.10;5.70;;;;;;;6.57;100.00;147698.78;5091771;28;20190;-63
2023/12/28 00:41:13;;;;;;;6.17;5.67;;;;;;;7.00;100.00;147805.88;5091998;28;20700;-63
2023/12/28 00:43:40;;;;;;;5.97;5.67;;;;;;;7.00;100.00;147807.09;5091727;28;20535;-62
2023/12/28 00:46:07;;;;;;;8.43;5.90;;;;;;;6.90;100.00;147781.94;5091978;28;20322;-62
2023/12/28 00:48:34;;;;;;;6.73;5.90;;;;;;;7.00;100.00;147807.09;5091917;28;20611;-62
2023/12/28 00:51:01;;;;;;;6.77;5.47;;;;;;;6.99;100.00;147804.63;5091560;28;20188;-62
2023/12/28 00:53:28;;;;;;;7.13;6.00;;;;;;;6.92;100.00;147786.94;5091428;28;20236;-63
2023/12/28 00:55:57;;;;;;;6.30;5.47;;;;;;;6.82;100.00;147761.78;5091937;28;20638;-63
2023/12/28 00:58:24;;;;;;;5.87;5.47;;;;;;;6.83;100.00;147765.50;5091486;28;20188;-61
2023/12/28 01:00:53;;;;;;;6.63;6.13;;;;;;;6.51;100.00;147683.63;5091292;28;20325;-63
2023/12/28 01:03:20;;;;;;;6.30;5.70;;;;;;;6.35;100.00;147645.88;5091421;28;20234;-63
2023/12/28 01:05:50;;;;;;;6.00;5.70;;;;;;;6.41;100.00;147659.69;5091340;28;20188;-63
2023/12/28 01:08:17;;;;;;;7.83;5.97;;;;;;;6.62;100.00;147712.59;5091299;28;20245;-62
2023/12/28 01:10:44;;;;;;;8.43;6.37;;;;;;;6.62;100.00;147711.38;5091313;28;20187;-63
2023/12/28 01:13:13;;;;;;;9.77;6.33;;;;;;;6.54;100.00;147692.44;5091414;28;20184;-62
2023/12/28 01:15:40;;;;;;;6.30;5.77;;;;;;;6.81;100.00;147760.50;5091605;28;20188;-62
2023/12/28 01:18:07;;;;;;;6.30;6.00;;;;;;;6.82;100.00;147761.78;5091632;28;20213;-63
2023/12/28 01:20:34;;;;;;;6.43;5.87;;;;;;;6.79;100.00;147755.44;5091513;28;20683;-63
2023/12/28 01:23:02;;;;;;;7.60;5.93;;;;;;;6.50;100.00;147682.38;5094992;28;20241;-63
2023/12/28 01:25:29;;;;;;;5.87;5.57;;;;;;;6.59;100.00;147705.06;5095044;28;20278;-63
2023/12/28 01:27:56;;;;;;;7.17;6.47;;;;;;;6.61;100.00;147708.84;5094916;28;20184;-63
2023/12/28 01:30:24;;;;;;;6.47;5.97;;;;;;;6.53;100.00;147689.97;5094874;28;20257;-63
2023/12/28 01:32:51;;;;;;;9.93;5.07;;;;;;;6.48;100.00;147677.34;5095007;28;20188;-63
2023/12/28 01:35:19;;;;;;;5.63;5.23;;;;;;;6.61;100.00;147708.84;5095173;28;20233;-63
2023/12/28 01:37:46;;;;;;;5.13;4.73;;;;;;;6.69;100.00;147730.28;5094788;28;20258;-62
2023/12/28 01:40:13;;;;;;;6.50;5.90;;;;;;;6.73;100.00;147739.09;5094751;28;20261;-62
2023/12/28 01:42:40;;;;;;;6.00;5.57;;;;;;;6.76;100.00;147747.91;5095032;28;20180;-64
2023/12/28 01:45:08;;;;;;;5.03;4.73;;;;;;;6.82;100.00;147761.78;5094645;28;20200;-63
2023/12/28 01:47:36;;;;;;;4.80;4.50;;;;;;;6.79;100.00;147755.44;5094687;28;20188;-62
2023/12/28 01:50:04;;;;;;;5.80;5.37;;;;;;;6.81;100.00;147760.50;5094514;28;20184;-63
2023/12/28 01:52:32;;;;;;;6.17;5.70;;;;;;;6.79;100.00;147754.16;5094511;28;20233;-63
2023/12/28 01:54:59;;;;;;;4.80;4.60;;;;;;;6.66;100.00;147722.66;5094812;28;20643;-62
2023/12/28 01:57:26;;;;;;;10.17;5.80;;;;;;;6.70;100.00;147732.81;5094485;28;20192;-62
2023/12/28 01:59:54;;;;;;;10.13;4.80;;;;;;;6.35;100.00;147644.59;5094588;28;20739;-63
2023/12/28 02:02:23;;;;;;;5.93;5.40;;;;;;;6.48;100.00;147677.34;5094391;28;20184;-62
2023/12/28 02:04:51;;;;;;;4.70;4.40;;;;;;;6.44;100.00;147667.28;5094400;28;20230;-62
2023/12/28 02:07:21;;;;;;;5.57;5.17;;;;;;;6.27;100.00;147625.72;5094703;28;20600;-64
2023/12/28 02:09:48;;;;;;;5.97;5.40;;;;;;;6.10;100.00;147581.63;5094457;28;20566;-64
2023/12/28 02:12:16;;;;;;;6.57;5.37;;;;;;;6.32;100.00;147637.06;5094589;28;20562;-63
2023/12/28 02:14:43;;;;;;;5.63;5.00;;;;;;;6.10;100.00;147582.88;5094234;28;20237;-63
2023/12/28 02:17:17;;;;;;;6.40;5.83;;;;;;;6.31;100.00;147634.53;5094455;28;20619;-62
2023/12/28 02:19:48;;;;;;;5.90;5.40;;;;;;;6.40;100.00;147658.47;5093948;28;20188;-63
2023/12/28 02:22:18;;;;;;;6.03;5.73;;;;;;;6.56;100.00;147696.25;5094382;28;20180;-64
2023/12/28 02:25:08;;;;;;;5.53;5.23;;;;;;;6.26;100.00;147623.19;5093818;28;20188;-64
2023/12/28 02:27:37;;;;;;;5.80;5.33;;;;;;;6.21;100.00;147610.56;5093873;28;20195;-65
2023/12/28 02:30:06;;;;;;;5.40;5.10;;;;;;;6.11;100.00;147584.16;5093811;28;20283;-62
2023/12/28 02:32:46;;;;;;;5.37;5.00;;;;;;;6.17;100.00;147599.25;5093024;28;20188;-63
2023/12/28 02:35:20;;;;;;;6.97;5.53;;;;;;;5.79;100.00;147506.00;5093658;28;20245;-63
2023/12/28 02:37:53;;;;;;;6.93;5.40;;;;;;;5.45;100.00;147420.41;5093725;28;20188;-63
2023/12/28 02:40:23;;;;;;;6.10;5.27;;;;;;;5.56;100.00;147446.88;5093585;28;20212;-62
2023/12/28 02:42:50;;;;;;;6.13;5.50;;;;;;;5.75;100.00;147495.94;5093595;28;20184;-63
2023/12/28 02:45:19;;;;;;;7.33;5.43;;;;;;;5.81;100.00;147511.03;5093783;28;20206;-63
2023/12/28 02:47:46;;;;;;;5.90;5.40;;;;;;;5.78;100.00;147502.22;5093637;28;20233;-63
2023/12/28 02:50:13;;;;;;;5.93;5.53;;;;;;;5.86;100.00;147523.66;5093747;28;20184;-62
2023/12/28 02:52:40;;;;;;;5.67;5.27;;;;;;;5.55;100.00;147445.59;5093399;28;20610;-63
2023/12/28 02:55:08;;;;;;;6.23;5.83;;;;;;;5.77;100.00;147499.72;5093351;28;20180;-63
2023/12/28 02:57:38;;;;;;;6.77;6.13;;;;;;;5.87;100.00;147526.19;5093538;28;20670;-62
2023/12/28 03:00:08;;;;;;;5.67;5.30;;;;;;;5.79;100.00;147506.00;5093602;28;20581;-62
2023/12/28 03:02:37;;;;;;;6.07;5.57;;;;;;;5.81;100.00;147511.03;5093233;28;20180;-63
2023/12/28 03:05:06;;;;;;;8.30;6.13;;;;;;;5.68;100.00;147478.34;5093043;28;20271;-63
2023/12/28 03:07:33;;;;;;;5.70;5.23;;;;;;;5.80;100.00;147507.28;5093539;28;20176;-63
2023/12/28 03:10:00;;;;;;;6.03;5.47;;;;;;;5.64;100.00;147467.00;5093221;28;20180;-63
2023/12/28 03:12:28;;;;;;;6.43;6.03;;;;;;;5.75;100.00;147495.94;5092897;28;20180;-62
2023/12/28 03:14:57;;;;;;;6.03;5.57;;;;;;;5.79;100.00;147506.00;5092867;28;20180;-62
2023/12/28 03:17:24;;;;;;;5.20;4.87;;;;;;;5.92;100.00;147538.81;5093207;28;20609;-62
2023/12/28 03:19:51;;;;;;;5.63;5.23;;;;;;;6.00;100.00;147556.41;5093139;28;20699;-62
2023/12/28 03:22:18;;;;;;;5.83;5.53;;;;;;;6.17;100.00;147599.25;5092775;28;20204;-63
2023/12/28 03:24:47;;;;;;;6.27;5.80;;;;;;;5.46;100.00;147422.94;5092836;28;20190;-63
2023/12/28 03:27:15;;;;;;;10.47;6.33;;;;;;;5.63;100.00;147465.75;5092701;28;20241;-63
2023/12/28 03:29:43;;;;;;;8.70;6.93;;;;;;;5.77;100.00;147500.94;5093009;28;20707;-63
2023/12/28 03:32:11;;;;;;;5.90;5.50;;;;;;;5.70;100.00;147482.09;5092633;28;20186;-62
2023/12/28 03:34:38;;;;;;;7.40;6.63;;;;;;;5.97;100.00;147550.13;5093052;28;20184;-62
2023/12/28 03:37:05;;;;;;;9.43;7.43;;;;;;;5.99;100.00;147555.16;5092576;28;20196;-62
2023/12/28 03:39:33;;;;;;;8.90;8.10;;;;;;;5.75;100.00;147495.94;5092314;28;20233;-62
2023/12/28 03:42:00;;;;;;;8.17;7.10;;;;;;;5.72;100.00;147487.13;5092694;28;20599;-62
2023/12/28 03:44:27;;;;;;;8.47;7.17;;;;;;;5.02;100.00;147313.44;5092162;28;20188;-62
2023/12/28 03:46:54;;;;;;;6.53;6.03;;;;;;;5.01;100.00;147312.16;5092605;28;20269;-64
2023/12/28 03:49:23;;;;;;;12.30;6.80;;;;;;;4.79;100.00;147256.84;5092697;28;20188;-64
2023/12/28 03:51:52;;;;;;;6.90;6.30;;;;;;;5.06;100.00;147323.50;5092238;28;20180;-62
2023/12/28 03:54:19;;;;;;;9.40;6.23;;;;;;;5.16;100.00;147347.41;5092123;28;20231;-63
2023/12/28 03:56:47;;;;;;;7.17;6.50;;;;;;;5.24;100.00;147368.81;5092642;28;20184;-62
2023/12/28 03:59:15;;;;;;;10.93;6.63;;;;;;;5.33;100.00;147391.47;5092350;28;20217;-63
2023/12/28 04:01:42;;;;;;;7.40;6.57;;;;;;;5.42;100.00;147412.88;5092022;28;20215;-62
2023/12/28 04:04:12;;;;;;;7.20;6.30;;;;;;;5.33;100.00;147391.47;5092332;28;20188;-62
2023/12/28 04:06:41;;;;;;;7.27;6.60;;;;;;;5.46;100.00;147422.94;5092018;28;20223;-63
2023/12/28 04:09:08;;;;;;;6.93;6.37;;;;;;;5.34;100.00;147392.72;5092025;28;20192;-63
2023/12/28 04:11:35;;;;;;;9.00;6.23;;;;;;;4.90;100.00;147284.50;5092213;28;20249;-63
2023/12/28 04:14:02;;;;;;;10.27;7.30;;;;;;;5.14;100.00;147342.34;5092040;28;20188;-62
2023/12/28 04:16:29;;;;;;;7.70;6.93;;;;;;;5.11;100.00;147336.09;5092224;28;20191;-62
2023/12/28 04:18:56;;;;;;;12.43;7.17;;;;;;;4.94;100.00;147293.31;5092303;28;20480;-62
2023/12/28 04:21:23;;;;;;;12.27;7.27;;;;;;;4.57;100.00;147201.50;5091800;28;20208;-63
2023/12/28 04:23:52;;;;;;;10.80;6.93;;;;;;;4.54;100.00;147193.97;5091752;28;20249;-61
2023/12/28 04:26:20;;;;;;;13.00;7.40;;;;;;;4.44;100.00;147170.06;5091825;28;20180;-62
2023/12/28 04:28:47;;;;;;;8.37;7.47;;;;;;;4.34;100.00;147143.63;5092109;28;20600;-62
2023/12/28 04:31:14;;;;;;;18.13;7.37;;;;;;;4.16;100.00;147099.59;5091802;28;20208;-62
2023/12/28 04:33:41;;;;;;;9.00;7.30;;;;;;;4.18;100.00;147103.38;5091796;28;20187;-63
2023/12/28 04:36:08;;;;;;;8.43;7.17;;;;;;;4.29;100.00;147132.28;5091898;28;20196;-63
2023/12/28 04:38:36;;;;;;;18.57;7.73;;;;;;;4.18;100.00;147104.66;5091846;28;20628;-63
2023/12/28 04:41:04;;;;;;;9.40;8.43;;;;;;;4.22;100.00;146596.31;5091588;28;20638;-62
2023/12/28 04:43:32;;;;;;;14.57;9.13;;;;;;;4.05;100.00;144328.16;5091704;28;20638;-63
2023/12/28 04:46:03;;;;;;;14.70;9.03;;;;;;;4.11;100.00;136497.53;5091468;28;20188;-63
2023/12/28 04:48:30;;;;;;;17.93;9.57;;;;;;;4.07;100.00;121605.34;5091845;28;20508;-62
2023/12/28 04:50:57;;;;;;;14.83;9.73;;;;;;;4.37;100.00;112145.94;5091811;28;20689;-63
2023/12/28 04:53:24;;;;;;;11.17;9.33;;;;;;;4.52;100.00;107213.59;5091463;28;20235;-62
2023/12/28 04:55:51;;;;;;;9.60;8.87;;;;;;;4.59;100.00;102465.41;5092266;28;20184;-62
2023/12/28 04:58:19;;;;;;;11.20;9.30;;;;;;;4.76;100.00;101268.50;5095511;28;20203;-62
2023/12/28 05:00:47;;;;;;;10.90;9.20;;;;;;;4.82;100.00;106149.81;5095306;28;20608;-62
2023/12/28 05:03:14;;;;;;;18.97;13.40;;;;;;;4.78;100.00;114814.19;5095726;28;20254;-63
2023/12/28 05:05:41;;;;;;;14.73;10.77;;;;;;;4.41;100.00;125039.03;5095796;28;20720;-63
2023/12/28 05:08:08;;;;;;;12.90;10.13;;;;;;;4.41;100.00;127878.56;5095697;28;20592;-63
2023/12/28 05:10:35;;;;;;;20.07;10.70;;;;;;;4.40;100.00;127531.06;5095240;28;20252;-63
2023/12/28 05:13:03;;;;;;;28.07;10.60;;;;;;;4.62;100.00;124840.28;5095332;28;20188;-62
2023/12/28 05:15:31;;;;;;;19.70;11.83;;;;;;;4.72;100.00;123821.78;5095484;28;20589;-62
2023/12/28 05:17:58;;;;;;;33.30;12.53;;;;;;;4.70;100.00;128161.69;5095149;28;20237;-63
2023/12/28 05:20:25;;;;;;;32.90;13.87;;;;;;;4.71;100.00;132635.34;5095650;28;20642;-63
2023/12/28 05:22:54;;;;;;;38.93;12.40;;;;;;;4.80;100.00;136844.16;5095386;28;20184;-63
2023/12/28 05:25:21;;;;;;;33.73;11.80;;;;;;;4.64;100.00;141224.47;5095233;28;20176;-62
2023/12/28 05:27:48;;;;;;;24.67;12.23;;;;;;;4.71;100.00;138141.16;5094909;28;20188;-62
2023/12/28 05:30:16;;;;;;;30.07;12.33;;;;;;;4.73;100.00;138170.47;5094840;28;20188;-62
2023/12/28 05:32:44;;;;;;;25.43;11.30;;;;;;;4.68;100.00;140073.34;5094797;28;20200;-62
2023/12/28 05:35:11;;;;;;;49.47;14.10;;;;;;;4.64;100.00;140205.44;5095149;28;20192;-63
2023/12/28 05:37:38;;;;;;;41.00;12.63;;;;;;;4.74;100.00;140484.50;5094753;28;20188;-62
2023/12/28 05:40:06;;;;;;;39.63;12.83;;;;;;;4.78;100.00;140818.78;5094604;28;20229;-62
2023/12/28 05:42:33;;;;;;;14.23;10.10;;;;;;;4.69;100.00;141235.19;5094598;28;20202;-62
2023/12/28 05:45:00;;;;;;;21.33;10.20;;;;;;;4.74;100.00;137200.81;5094569;28;20233;-62
2023/12/28 05:47:27;;;;;;;26.63;10.47;;;;;;;4.75;100.00;129354.00;5094895;28;20506;-62
2023/12/28 05:49:56;;;;;;;45.23;14.10;;;;;;;4.29;100.00;115523.16;5094514;28;20241;-62
2023/12/28 05:52:23;;;;;;;25.73;10.40;;;;;;;4.05;100.00;108617.50;5094319;28;20242;-63
2023/12/28 05:54:50;;;;;;;32.13;12.00;;;;;;;4.33;100.00;97875.09;5094346;28;20222;-62
2023/12/28 05:57:18;;;;;;;34.90;13.93;;;;;;;4.35;100.00;89232.06;5094704;28;20553;-62
2023/12/28 05:59:45;;;;;;;32.07;12.83;;;;;;;4.47;100.00;81916.06;5094415;28;20185;-62
2023/12/28 06:02:12;;;;;;;20.60;11.93;;;;;;;4.63;100.00;78889.00;5094359;28;20275;-62
2023/12/28 06:04:39;;;;;;;32.63;17.73;;;;;;;4.68;100.00;81828.41;5094382;28;20257;-61
2023/12/28 06:07:08;;;;;;;35.83;16.37;;;;;;;4.69;100.00;87410.84;5093644;28;20192;-62
2023/12/28 06:09:36;;;;;;;23.80;14.07;;;;;;;4.95;100.00;87929.75;5093268;28;20192;-64
2023/12/28 06:12:04;;;;;;;17.70;10.70;;;;;;;5.18;100.00;88039.94;5094207;28;20555;-63
2023/12/28 06:14:31;;;;;;;39.07;15.90;;;;;;;5.61;100.00;91783.66;5093960;28;20195;-63
2023/12/28 06:16:58;;;;;;;48.77;15.63;;;;;;;5.97;100.00;105894.38;5093869;28;20210;-63
2023/12/28 06:19:25;;;;;;;31.03;14.83;;;;;;;6.42;100.00;147662.22;5094223;28;20184;-63
2023/12/28 06:21:53;;;;;;;18.13;11.40;;;;;;;6.77;100.00;147749.16;5094080;28;20184;-62
2023/12/28 06:24:22;;;;;;;35.27;14.00;;;;;;;7.35;100.00;147894.09;5093637;28;20180;-64
2023/12/28 06:26:49;;;;;;;27.20;12.53;;;;;;;8.09;100.00;148079.50;5093750;28;20589;-62
2023/12/28 06:29:16;;;;;;;29.07;12.23;;;;;;;8.69;100.00;148229.72;5093676;28;20184;-63
2023/12/28 06:31:43;;;;;;;29.53;12.80;;;;;;;9.53;100.00;148438.00;5093465;28;20688;-62
2023/12/28 06:34:10;;;;;;;46.73;13.73;;;;;;;9.72;100.00;148485.97;5093390;28;20188;-63
2023/12/28 06:36:37;;;;;;;34.10;12.63;;;;;;;9.51;100.00;148434.19;5093613;28;20631;-64
2023/12/28 06:39:04;;;;;;;43.97;15.37;;;;;;;9.58;100.00;148450.66;5093399;28;20241;-63
2023/12/28 06:41:33;;;;;;;69.77;20.70;;;;;;;10.16;100.00;148595.97;5093761;28;20176;-63
2023/12/28 06:44:00;;;;;;;55.20;17.30;;;;;;;10.67;100.00;148723.63;5093360;28;20200;-63
2023/12/28 06:46:27;;;;;;;49.57;16.10;;;;;;;11.54;100.00;148939.88;5093354;28;20191;-64
2023/12/28 06:48:54;;;;;;;134.80;21.87;;;;;;;12.40;100.00;149155.00;5093587;28;20615;-63
2023/12/28 06:51:21;;;;;;;93.40;19.63;;;;;;;12.59;100.00;149204.41;5093234;28;20212;-63
2023/12/28 06:53:49;;;;;;;75.13;18.27;;;;;;;13.50;100.00;149431.13;5093064;28;20235;-64
2023/12/28 06:56:16;;;;;;;108.53;21.10;;;;;;;13.66;100.00;149471.72;5093186;28;20191;-63
2023/12/28 06:58:45;;;;;;;93.63;22.47;;;;;;;13.84;100.00;149516.03;5093100;28;20188;-63
2023/12/28 07:01:12;;;;;;;84.50;21.30;;;;;;;14.06;100.00;149573.09;5093413;28;20237;-62
2023/12/28 07:03:39;;;;;;;54.17;16.53;;;;;;;14.47;100.00;149675.78;5093038;28;20209;-66
2023/12/28 07:06:06;;;;;;;60.13;16.63;;;;;;;14.63;100.00;149715.13;5093147;28;20188;-63
2023/12/28 07:08:34;;;;;;;33.67;14.63;;;;;;;14.77;95.53;149749.34;5092806;28;20185;-63
2023/12/28 07:11:01;;;;;;;67.20;16.20;;;;;;;14.37;100.00;149649.19;5092845;28;20184;-63
2023/12/28 07:13:28;;;;;;;71.27;16.83;;;;;;;14.82;100.00;149762.03;5092770;28;20203;-62
2023/12/28 07:15:56;;;;;;;64.37;15.73;;;;;;;15.24;95.31;149867.31;5093174;28;20549;-63
2023/12/28 07:18:23;;;;;;;38.87;13.57;;;;;;;15.63;89.29;149966.34;5092981;28;20187;-64
2023/12/28 07:20:50;;;;;;;59.60;20.67;;;;;;;15.94;87.47;150045.03;5092523;28;20261;-63
2023/12/28 07:23:17;;;;;;;51.43;23.47;;;;;;;16.79;81.14;150258.41;5093039;28;20611;-63
2023/12/28 07:25:44;;;;;;;44.00;19.07;;;;;;;15.87;84.29;150026.03;5093000;28;20188;-63
2023/12/28 07:28:12;;;;;;;35.87;15.70;;;;;;;16.17;85.01;150102.13;5092880;28;20664;-63
2023/12/28 07:30:39;;;;;;;27.50;13.50;;;;;;;15.17;94.33;149850.84;5092804;28;20180;-63
2023/12/28 07:33:07;;;;;;;29.80;12.67;;;;;;;16.10;89.35;150083.09;5092391;28;20203;-63
2023/12/28 07:35:34;;;;;;;31.37;12.73;;;;;;;16.27;85.29;150127.56;5092759;28;20646;-64
2023/12/28 07:38:02;;;;;;;36.57;13.60;;;;;;;16.63;84.68;150217.78;5092786;28;20242;-63
2023/12/28 07:40:29;;;;;;;30.03;13.37;;;;;;;16.06;88.38;150072.94;5092617;28;20621;-63
2023/12/28 07:42:56;;;;;;;30.37;14.17;;;;;;;16.74;85.57;150245.69;5092597;28;20627;-64
2023/12/28 07:45:24;;;;;;;34.77;13.60;;;;;;;16.89;84.65;150283.78;5092290;28;20181;-64
2023/12/28 07:47:51;;;;;;;28.80;14.57;;;;;;;17.88;77.58;150530.34;5092164;28;20194;-63
2023/12/28 07:50:20;;;;;;;34.03;15.50;;;;;;;18.49;70.80;150685.50;5092363;28;20271;-63
2023/12/28 07:52:48;;;;;;;33.30;14.87;;;;;;;18.17;73.39;150604.06;5092055;28;20244;-64
2023/12/28 07:55:15;;;;;;;42.53;16.33;;;;;;;18.46;75.76;150677.81;5092343;28;20261;-63
2023/12/28 07:57:42;;;;;;;38.00;15.53;;;;;;;18.56;74.39;150703.31;5092113;28;20214;-63
2023/12/28 08:00:12;;;;;;;43.13;16.87;;;;;;;19.12;71.15;150843.25;5092360;28;20630;-63
2023/12/28 08:02:39;;;;;;;29.05;13.75;;;;;;;20.14;62.46;151100.41;5092588;28;20234;-63
2023/12/28 08:05:07;;;;;;;34.60;14.85;;;;;;;20.45;60.50;151178.13;5092101;28;20253;-64
2023/12/28 08:07:35;;;;;;;32.58;14.82;;;;;;;21.38;57.72;151412.56;5092181;28;20183;-64
2023/12/28 08:10:03;;;;;;;35.65;14.35;;;;;;;22.40;53.73;151670.13;5091980;28;20180;-64
2023/12/28 08:12:30;;;;;;;29.30;14.30;;;;;;;22.68;51.78;151741.53;5091983;28;20260;-64
2023/12/28 08:14:57;;;;;;;36.00;17.67;;;;;;;23.90;49.49;152049.13;5091810;28;20192;-64
2023/12/28 08:17:26;;;;;;;43.05;18.65;;;;;;;24.16;47.81;152113.00;5092345;28;20527;-64
2023/12/28 08:19:53;;;;;;;61.58;22.02;;;;;;;24.75;46.85;152263.69;5091708;28;20188;-64
2023/12/28 08:22:20;;;;;;;37.97;19.95;;;;;;;25.05;45.70;152339.09;5091615;28;20209;-63
2023/12/28 08:24:48;;;;;;;42.75;20.88;;;;;;;23.44;47.69;151933.00;5091948;28;20188;-64
2023/12/28 08:27:15;;;;;;;38.40;18.95;;;;;;;24.78;46.42;152271.34;5091679;28;20620;-64
2023/12/28 08:29:43;;;;;;;33.03;18.13;;;;;;;25.67;43.09;152496.34;5091930;28;20179;-64
2023/12/28 08:32:10;;;;;;;50.80;18.92;;;;;;;24.47;44.02;152193.47;5091144;28;20303;-64
2023/12/28 08:34:37;;;;;;;42.70;18.88;;;;;;;23.65;46.57;151985.31;5091492;28;20234;-64
2023/12/28 08:37:05;;;;;;;32.25;18.73;;;;;;;23.95;46.32;152061.91;5091748;28;20282;-64
2023/12/28 08:39:32;;;;;;;49.78;18.98;;;;;;;25.41;44.17;152431.13;5091869;28;20184;-64
2023/12/28 08:42:00;;;;;;;48.28;20.10;;;;;;;25.85;42.97;152542.31;5091450;28;20233;-64
2023/12/28 08:44:27;;;;;;;49.97;19.67;;;;;;;26.97;41.11;152823.72;5091585;28;20183;-65
2023/12/28 08:46:54;;;;;;;44.42;21.83;;;;;;;26.65;40.46;152744.34;5091738;28;20180;-64
2023/12/28 08:49:22;;;;;;;64.47;23.42;;;;;;;27.08;39.35;152851.84;5091986;28;20202;-65
2023/12/28 08:51:49;;;;;;;41.17;18.40;;;;;;;24.31;41.95;152152.63;5091594;28;20562;-64
2023/12/28 08:54:16;;;;;;;75.95;23.42;;;;;;;25.22;42.08;152382.53;5091178;28;20235;-65
2023/12/28 08:56:43;;;;;;;39.25;19.60;;;;;;;24.99;42.00;152325.03;5091733;28;20642;-64
2023/12/28 08:59:12;;;;;;;39.83;18.35;;;;;;;25.29;42.17;152399.19;5091278;28;20188;-64
2023/12/28 09:01:39;;;;;;;28.42;17.30;;;;;;;26.40;40.41;152679.13;5091417;28;20188;-64
2023/12/28 09:04:06;;;;;;;32.92;17.23;;;;;;;27.43;39.64;152941.41;5091046;28;20180;-65
2023/12/28 09:06:33;;;;;;;49.67;17.85;;;;;;;28.58;38.16;153233.31;5090814;28;20249;-64
2023/12/28 09:09:00;;;;;;;40.97;16.10;;;;;;;28.84;36.44;153297.38;5091563;28;20634;-65
2023/12/28 09:11:28;;;;;;;35.03;16.35;;;;;;;28.79;36.42;153284.56;5091405;28;20184;-64
2023/12/28 09:13:55;;;;;;;23.35;13.48;;;;;;;28.48;36.93;153207.69;5091255;28;20208;-64
2023/12/28 09:16:24;;;;;;;17.80;12.57;;;;;;;29.03;36.32;153346.03;5091119;28;20188;-65
2023/12/28 09:18:51;;;;;;;11.68;10.73;;;;;;;29.61;36.14;153492.13;5090907;28;20238;-64
2023/12/28 09:21:18;;;;;;;14.77;12.82;;;;;;;30.47;34.92;153711.34;5091183;28;20192;-64
2023/12/28 09:23:45;;;;;;;21.00;14.60;;;;;;;31.32;33.38;153925.53;5091587;28;20643;-64
2023/12/28 09:26:13;;;;;;;22.08;13.77;;;;;;;30.89;33.81;153817.78;5091535;28;20218;-64
2023/12/28 09:28:40;;;;;;;15.30;13.57;;;;;;;31.51;33.01;153975.53;5091202;28;20184;-64
2023/12/28 09:31:07;;;;;;;23.00;13.93;;;;;;;31.62;32.87;154002.50;5091153;28;20187;-64
2023/12/28 09:33:36;;;;;;;19.88;13.05;;;;;;;31.38;32.49;153940.91;5091443;28;20593;-65
2023/12/28 09:36:04;;;;;;;21.88;13.15;;;;;;;32.06;32.62;154114.13;5091145;28;20195;-64
2023/12/28 09:38:31;;;;;;;14.88;11.75;;;;;;;31.98;32.03;154093.59;5091098;28;20188;-65
2023/12/28 09:41:09;;;;;;;19.67;13.10;;;;;;;31.41;32.05;153949.88;5091387;28;20193;-64
2023/12/28 09:43:42;;;;;;;14.88;13.73;;;;;;;31.88;31.69;154069.22;5093905;28;20250;-64
2023/12/28 09:46:11;;;;;;;13.63;12.40;;;;;;;31.56;32.08;153987.13;5094679;28;20188;-63
2023/12/28 09:48:39;;;;;;;20.08;12.50;;;;;;;31.71;31.83;154026.88;5094582;28;20249;-63
2023/12/28 09:51:06;;;;;;;18.83;13.02;;;;;;;31.81;31.57;154051.28;5094814;28;20192;-65
2023/12/28 09:53:34;;;;;;;16.15;14.70;;;;;;;31.83;31.82;154056.38;5094455;28;20276;-64
2023/12/28 09:56:02;;;;;;;14.85;13.32;;;;;;;31.43;31.54;153953.72;5094405;28;20219;-64
2023/12/28 09:58:32;;;;;;;17.95;13.57;;;;;;;31.54;32.04;153981.94;5094748;28;20202;-64
2023/12/28 10:01:01;;;;;;;17.70;13.13;;;;;;;31.90;31.56;154074.38;5094295;28;20195;-65
2023/12/28 10:03:28;;;;;;;27.23;17.13;;;;;;;31.55;31.91;153985.84;5094154;28;20204;-64
2023/12/28 10:05:56;;;;;;;32.45;18.55;;;;;;;30.27;33.29;153660.03;5094199;28;20237;-65
2023/12/28 10:08:23;;;;;;;29.05;20.70;;;;;;;29.97;34.01;153584.41;5094554;28;20184;-64
2023/12/28 10:10:53;;;;;;;21.95;17.23;;;;;;;30.10;33.16;153617.72;5094362;28;20180;-64
2023/12/28 10:13:21;;;;;;;30.05;18.70;;;;;;;31.02;33.14;153851.13;5094546;28;20188;-63
2023/12/28 10:15:49;;;;;;;18.80;16.25;;;;;;;31.62;32.46;154002.50;5093962;28;20192;-64
2023/12/28 10:18:19;;;;;;;17.02;12.10;;;;;;;31.49;31.97;153969.09;5094458;28;20222;-64
2023/12/28 10:20:51;;;;;;;21.65;12.35;;;;;;;30.73;32.10;153776.72;5093743;28;20184;-65
2023/12/28 10:23:20;;;;;;;22.35;14.23;;;;;;;31.58;31.88;153993.53;5093831;28;20240;-64
2023/12/28 10:25:48;;;;;;;13.77;12.23;;;;;;;32.20;30.91;154148.81;5093900;28;20188;-64
2023/12/28 10:28:18;;;;;;;14.45;12.43;;;;;;;30.83;32.06;153803.66;5094007;28;20191;-64
2023/12/28 10:30:46;;;;;;;12.50;11.35;;;;;;;31.67;31.47;154015.34;5094153;28;20637;-64
2023/12/28 10:33:14;;;;;;;12.38;11.00;;;;;;;31.53;31.26;153979.41;5094019;28;20176;-63
2023/12/28 10:35:41;;;;;;;14.63;9.88;;;;;;;29.58;33.04;153485.69;5094304;28;20250;-64
2023/12/28 10:38:10;;;;;;;12.80;10.95;;;;;;;30.03;33.82;153599.81;5094103;28;20639;-65
2023/12/28 10:40:41;;;;;;;20.58;12.45;;;;;;;30.78;32.54;153789.53;5093615;28;20213;-64
2023/12/28 10:43:11;;;;;;;11.73;9.52;;;;;;;30.59;32.78;153742.13;5093475;28;20713;-64
2023/12/28 10:45:43;;;;;;;10.60;9.55;;;;;;;31.38;31.65;153940.91;5093338;28;20192;-66
2023/12/28 10:48:12;;;;;;;10.15;9.32;;;;;;;30.87;32.00;153811.34;5093760;28;20559;-64
2023/12/28 10:50:41;;;;;;;9.48;8.75;;;;;;;29.91;33.06;153570.34;5093622;28;20551;-64
2023/12/28 10:53:27;;;;;;;11.25;10.25;;;;;;;28.93;34.44;153321.72;5093427;28;20227;-64
2023/12/28 10:56:11;;;;;;;10.52;9.60;;;;;;;29.54;33.63;153475.44;5093436;28;20600;-64
2023/12/28 10:58:47;;;;;;;8.73;7.82;;;;;;;30.79;32.67;153792.13;5093494;28;20188;-64
2023/12/28 11:01:23;;;;;;;7.25;6.85;;;;;;;31.65;31.33;154010.22;5093640;28;20617;-64
2023/12/28 11:03:59;;;;;;;9.65;8.70;;;;;;;31.75;32.10;154035.84;5093416;28;20673;-64
2023/12/28 11:06:29;;;;;;;11.52;9.10;;;;;;;31.93;31.79;154080.75;5093172;28;20184;-65
2023/12/28 11:08:59;;;;;;;15.65;9.38;;;;;;;31.04;32.44;153854.97;5093319;28;20256;-65
2023/12/28 11:11:28;;;;;;;8.60;8.07;;;;;;;31.32;32.64;153925.53;5093116;28;20188;-64
2023/12/28 11:13:56;;;;;;;9.98;9.38;;;;;;;31.77;31.93;154039.72;5092601;28;20210;-65
2023/12/28 11:16:25;;;;;;;14.00;7.93;;;;;;;31.15;33.45;153883.19;5093026;28;20188;-64
2023/12/28 11:18:53;;;;;;;9.82;8.73;;;;;;;26.88;37.92;152800.69;5093122;28;20192;-63
2023/12/28 11:21:23;;;;;;;9.48;8.52;;;;;;;25.57;40.51;152469.47;5092689;28;20242;-64